createdAt,value
2022-10-20T00:03:05.124Z,6.85
2022-10-20T00:08:07.763Z,9.82
2022-10-20T00:13:20.107Z,8.20
2022-10-20T00:18:20.847Z,10.35
2022-10-20T00:23:22.778Z,7.32
2022-10-20T00:28:23.080Z,6.00
2022-10-20T00:33:30.290Z,7.72
2022-10-20T00:38:41.561Z,6.28
2022-10-20T00:43:53.025Z,5.28
2022-10-20T00:50:03.416Z,6.07
2022-10-20T00:55:29.816Z,8.82
2022-10-20T01:00:39.076Z,4.90
2022-10-20T01:05:51.364Z,9.32
2022-10-20T01:11:28.975Z,11.23
2022-10-20T01:17:09.898Z,10.20
2022-10-20T01:22:33.104Z,11.32
2022-10-20T01:28:03.587Z,8.30
2022-10-20T01:33:34.011Z,15.40
2022-10-20T01:38:44.995Z,11.30
2022-10-20T01:43:48.631Z,8.77
2022-10-20T01:48:56.826Z,11.00
2022-10-20T01:53:57.257Z,11.35
2022-10-20T01:59:17.984Z,10.90
2022-10-20T02:04:19.920Z,8.60
2022-10-20T02:09:31.351Z,8.90
2022-10-20T02:14:33.338Z,13.02
2022-10-20T02:19:41.100Z,8.68
2022-10-20T02:24:45.313Z,8.55
2022-10-20T02:30:11.053Z,8.43
2022-10-20T02:35:15.054Z,12.90
2022-10-20T02:40:14.761Z,7.68
2022-10-20T02:45:14.226Z,13.55
2022-10-20T02:50:19.636Z,11.80
2022-10-20T03:00:23.676Z,8.25
2022-10-20T03:05:23.726Z,10.05
2022-10-20T03:10:22.199Z,11.93
2022-10-20T03:15:21.479Z,10.45
2022-10-20T03:20:23.113Z,11.80
2022-10-20T03:25:23.761Z,8.32
2022-10-20T03:30:23.535Z,15.13
2022-10-20T03:35:35.391Z,19.33
2022-10-20T03:40:34.160Z,11.50
2022-10-20T03:45:37.518Z,15.02
2022-10-20T03:50:39.907Z,10.77
2022-10-20T03:55:40.028Z,14.50
2022-10-20T04:00:37.466Z,26.92
2022-10-20T04:05:35.541Z,30.10
2022-10-20T04:10:36.161Z,24.67
2022-10-20T04:15:33.495Z,25.23
2022-10-20T04:20:33.675Z,28.15
2022-10-20T04:25:35.244Z,21.75
2022-10-20T04:30:35.190Z,33.78
2022-10-20T04:35:36.482Z,22.42
2022-10-20T04:40:38.026Z,15.95
2022-10-20T04:45:39.347Z,23.60
2022-10-20T04:50:39.757Z,16.05
2022-10-20T04:55:40.325Z,19.67
2022-10-20T05:00:38.649Z,20.38
2022-10-20T05:11:49.345Z,24.23
2022-10-20T05:16:46.922Z,16.58
2022-10-20T05:21:51.042Z,20.60
2022-10-20T05:31:58.699Z,29.25
2022-10-20T05:37:01.801Z,21.92
2022-10-20T05:42:12.714Z,15.30
2022-10-20T05:47:41.864Z,12.00
2022-10-20T05:52:47.294Z,19.98
2022-10-20T05:58:24.502Z,18.23
2022-10-20T06:03:37.581Z,23.15
2022-10-20T06:08:36.648Z,16.55
2022-10-20T06:13:51.683Z,20.33
2022-10-20T06:18:58.355Z,21.33
2022-10-20T06:24:00.051Z,18.48
2022-10-20T06:29:03.938Z,23.55
2022-10-20T06:34:08.910Z,32.67
2022-10-20T06:39:11.882Z,19.38
2022-10-20T06:44:11.045Z,27.55
2022-10-20T06:49:16.886Z,25.80
2022-10-20T06:54:15.414Z,20.70
2022-10-20T06:59:17.630Z,21.52
2022-10-20T07:04:18.005Z,17.02
2022-10-20T07:16:17.887Z,6.90
2022-10-20T07:21:34.527Z,2.88
2022-10-20T07:26:38.394Z,4.72
2022-10-20T07:31:51.783Z,3.63
2022-10-20T07:36:51.662Z,3.40
2022-10-20T07:41:52.920Z,6.50
2022-10-20T07:46:56.032Z,9.15
2022-10-20T07:51:55.190Z,2.42
2022-10-20T07:56:53.923Z,5.57
2022-10-20T08:01:56.267Z,10.57
2022-10-20T08:06:56.828Z,2.13
2022-10-20T08:11:56.374Z,4.70
2022-10-20T08:16:59.792Z,1.95
2022-10-20T08:21:59.025Z,2.35
2022-10-20T08:26:57.454Z,3.35
2022-10-20T08:31:58.549Z,2.53
2022-10-20T08:37:01.226Z,6.78
2022-10-20T08:42:08.689Z,1.35
2022-10-20T08:47:29.353Z,1.38
2022-10-20T08:52:33.023Z,10.85
2022-10-20T08:57:36.488Z,3.90
2022-10-20T09:07:38.551Z,1.83
2022-10-20T09:12:40.896Z,2.55
2022-10-20T09:17:44.978Z,4.80
2022-10-20T09:22:47.484Z,3.70
2022-10-20T09:27:49.607Z,2.60
2022-10-20T09:32:49.178Z,12.00
2022-10-20T09:37:59.277Z,9.07
2022-10-20T09:43:16.222Z,5.72
2022-10-20T09:48:39.529Z,3.38
2022-10-20T09:53:51.587Z,1.63
2022-10-20T09:58:49.933Z,5.88
2022-10-20T10:03:59.818Z,3.97
2022-10-20T10:09:03.116Z,3.00
2022-10-20T10:14:04.184Z,1.42
2022-10-20T10:19:05.367Z,4.35
2022-10-20T10:24:04.747Z,3.08
2022-10-20T10:29:04.081Z,4.82
2022-10-20T10:34:29.233Z,2.13
2022-10-20T10:39:34.205Z,1.40
2022-10-20T10:44:35.343Z,1.65
2022-10-20T10:49:47.283Z,4.70
2022-10-20T10:55:11.697Z,3.15
2022-10-20T11:00:43.981Z,2.22
2022-10-20T11:06:04.559Z,1.17
2022-10-20T11:11:16.376Z,4.15
2022-10-20T11:16:46.909Z,2.97
2022-10-20T11:22:04.218Z,1.70
2022-10-20T11:27:08.383Z,5.22
2022-10-20T11:32:19.793Z,6.00
2022-10-20T11:37:29.002Z,1.83
2022-10-20T11:43:02.707Z,1.55
2022-10-20T11:48:48.739Z,2.78
2022-10-20T11:53:54.887Z,1.33
2022-10-20T11:59:14.615Z,8.60
2022-10-20T12:04:27.796Z,1.83
2022-10-20T12:09:46.174Z,2.08
2022-10-20T12:14:52.758Z,1.50
2022-10-20T12:19:55.208Z,3.65
2022-10-20T12:24:57.334Z,1.30
2022-10-20T12:30:01.868Z,2.97
2022-10-20T12:35:22.226Z,7.70
2022-10-20T12:40:31.269Z,3.95
2022-10-20T12:45:42.874Z,5.43
2022-10-20T12:50:44.941Z,7.00
2022-10-20T12:56:22.205Z,3.88
2022-10-20T13:01:31.052Z,7.53
2022-10-20T13:06:31.542Z,4.10
2022-10-20T13:11:39.290Z,3.13
2022-10-20T13:16:37.633Z,3.03
2022-10-20T13:21:49.441Z,7.95
2022-10-20T13:27:06.467Z,1.75
2022-10-20T13:32:18.251Z,1.27
2022-10-20T13:37:29.180Z,3.03
2022-10-20T13:42:55.043Z,1.52
2022-10-20T13:48:31.490Z,1.33
2022-10-20T13:53:40.609Z,2.88
2022-10-20T13:59:05.487Z,4.28
2022-10-20T14:04:24.250Z,5.85
2022-10-20T14:09:26.510Z,2.08
2022-10-20T14:14:26.599Z,4.70
2022-10-20T14:19:29.396Z,9.55
2022-10-20T14:24:38.226Z,5.55
2022-10-20T14:29:41.603Z,5.68
2022-10-20T14:35:00.597Z,2.33
2022-10-20T14:40:08.184Z,3.08
2022-10-20T14:45:20.060Z,4.45
2022-10-20T14:50:28.216Z,4.50
2022-10-20T14:55:37.295Z,2.70
2022-10-20T15:00:44.309Z,4.47
2022-10-20T15:05:48.588Z,11.30
2022-10-20T15:10:53.901Z,3.67
2022-10-20T15:15:55.886Z,11.13
2022-10-20T15:20:58.206Z,5.32
2022-10-20T15:26:01.577Z,3.20
2022-10-20T15:31:02.116Z,5.97
2022-10-20T15:36:02.011Z,13.77
2022-10-20T15:41:13.523Z,9.65
2022-10-20T15:46:16.011Z,3.90
2022-10-20T15:51:31.724Z,6.38
2022-10-20T15:56:35.524Z,8.18
2022-10-20T16:02:04.523Z,4.80
2022-10-20T16:13:23.680Z,7.38
2022-10-20T16:18:30.999Z,10.30
2022-10-20T16:23:34.887Z,8.68
2022-10-20T16:28:34.615Z,10.52
2022-10-20T16:33:34.636Z,12.63
2022-10-20T16:38:43.740Z,7.55
2022-10-20T16:43:51.753Z,10.27
2022-10-20T16:49:04.022Z,10.10
2022-10-20T16:54:08.189Z,13.35
2022-10-20T17:04:51.048Z,12.80
2022-10-20T17:09:54.292Z,6.28
2022-10-20T17:14:58.010Z,8.10
2022-10-20T17:19:59.823Z,12.02
2022-10-20T17:24:59.581Z,10.38
2022-10-20T17:30:26.445Z,17.30
2022-10-20T17:35:44.042Z,5.18
2022-10-20T17:40:53.917Z,8.98
2022-10-20T17:46:01.288Z,13.07
2022-10-20T17:51:02.224Z,8.50
2022-10-20T17:56:05.094Z,7.68
2022-10-20T18:01:17.412Z,6.63
2022-10-20T18:06:20.613Z,6.15
2022-10-20T18:11:22.332Z,5.37
2022-10-20T18:16:23.542Z,7.28
2022-10-20T18:21:22.358Z,13.75
2022-10-20T18:26:36.256Z,11.95
2022-10-20T18:31:39.601Z,6.57
2022-10-20T18:36:41.976Z,6.22
2022-10-20T18:41:45.633Z,8.73
2022-10-20T18:46:46.857Z,5.22
2022-10-20T18:51:47.756Z,15.15
2022-10-20T18:56:46.371Z,5.00
2022-10-20T19:01:51.696Z,3.75
2022-10-20T19:06:54.115Z,11.18
2022-10-20T19:11:52.258Z,2.30
2022-10-20T19:16:50.418Z,5.50
2022-10-20T19:22:25.663Z,6.50
2022-10-20T19:27:30.481Z,6.40
2022-10-20T19:32:39.006Z,7.32
2022-10-20T19:37:45.249Z,5.07
2022-10-20T19:42:45.054Z,10.02
2022-10-20T19:53:10.486Z,8.13
2022-10-20T19:58:11.933Z,7.25
2022-10-20T20:03:11.607Z,4.75
2022-10-20T20:08:12.484Z,11.25
2022-10-20T20:13:12.534Z,6.75
2022-10-20T20:18:16.111Z,7.97
2022-10-20T20:23:16.236Z,4.63
2022-10-20T20:28:16.902Z,4.93
2022-10-20T20:33:20.124Z,8.48
2022-10-20T20:38:20.865Z,9.10
2022-10-20T20:43:21.569Z,5.57
2022-10-20T20:48:23.878Z,6.88
2022-10-20T20:53:23.230Z,3.92
2022-10-20T20:58:34.694Z,10.02
2022-10-20T21:03:37.216Z,3.15
2022-10-20T21:08:37.894Z,10.18
2022-10-20T21:13:39.145Z,5.95
2022-10-20T21:18:41.815Z,12.07
2022-10-20T21:23:40.259Z,14.98
2022-10-20T21:28:43.083Z,13.85
2022-10-20T21:33:43.281Z,7.78
2022-10-20T21:38:42.485Z,11.13
2022-10-20T21:43:43.191Z,2.65
2022-10-20T21:49:08.439Z,4.85
2022-10-20T21:54:14.704Z,8.80
2022-10-20T21:59:19.170Z,3.70
2022-10-20T22:04:22.032Z,9.60
2022-10-20T22:09:21.746Z,8.93
2022-10-20T22:14:24.258Z,7.47
2022-10-20T22:19:25.188Z,4.05
2022-10-20T22:24:52.136Z,4.00
2022-10-20T22:29:53.049Z,5.13
2022-10-20T22:34:56.333Z,8.75
2022-10-20T22:39:57.737Z,3.05
2022-10-20T22:44:58.295Z,8.38
2022-10-20T22:50:00.197Z,4.30
2022-10-20T22:55:01.458Z,6.22
2022-10-20T23:00:17.242Z,5.30
2022-10-20T23:05:24.306Z,5.68
2022-10-20T23:10:25.259Z,3.72
2022-10-20T23:15:27.481Z,9.52
2022-10-20T23:20:24.998Z,2.15
2022-10-20T23:25:25.021Z,3.33
2022-10-20T23:30:29.076Z,13.65
2022-10-20T23:35:29.967Z,2.30
2022-10-20T23:45:45.408Z,1.98
2022-10-20T23:50:53.338Z,2.25
2022-10-20T23:56:18.708Z,5.50
